Time;durP1;ratioP1;P1;durP2;ratioP2;P2;SDS_P1;SDS_P2;PMS_P1;PMS_P2;Temp;Humidity;BMP_temperature;BMP_pressure;BME280_temperature;BME280_humidity;BME280_pressure;Samples;Min_cycle;Max_cycle;Signal;HPM_P1;HPM_P2
2024/02/29 00:00:12;;;;;;;39.60;27.03;;;2.80;99.90;;;;;;5080729;28;20477;-44
2024/02/29 00:02:41;;;;;;;41.80;27.60;;;2.80;99.90;;;;;;5080452;28;20431;-46
2024/02/29 00:05:07;;;;;;;41.40;27.07;;;2.80;99.90;;;;;;5080644;28;20685;-47
2024/02/29 00:07:33;;;;;;;41.70;29.77;;;2.80;99.90;;;;;;5079711;28;20433;-44
2024/02/29 00:09:58;;;;;;;44.80;29.00;;;2.70;99.90;;;;;;5079342;28;20590;-43
2024/02/29 00:12:24;;;;;;;43.70;29.03;;;2.70;1.00;;;;;;5095921;28;20276;-46
2024/02/29 00:14:51;;;;;;;47.40;30.57;;;2.70;1.00;;;;;;5095350;28;20220;-46
2024/02/29 00:17:17;;;;;;;46.10;29.67;;;2.70;1.00;;;;;;5080222;28;20179;-45
2024/02/29 00:19:43;;;;;;;46.57;31.57;;;2.70;1.00;;;;;;5096180;28;20498;-46
2024/02/29 00:22:09;;;;;;;49.10;31.60;;;2.70;1.00;;;;;;5061897;28;20185;-45
2024/02/29 00:24:35;;;;;;;47.60;31.40;;;2.80;1.00;;;;;;5077426;28;20469;-44
2024/02/29 00:27:01;;;;;;;49.80;30.93;;;2.80;1.00;;;;;;5078678;28;20732;-45
2024/02/29 00:29:28;;;;;;;48.20;32.17;;;2.80;1.00;;;;;;5079192;28;20409;-44
2024/02/29 00:32:00;;;;;;;47.67;31.60;;;2.80;1.00;;;;;;5079309;28;20792;-48
2024/02/29 00:34:28;;;;;;;22.23;15.33;;;2.90;1.00;;;;;;5078307;28;20900;-51
2024/02/29 00:36:55;;;;;;;39.83;25.70;;;6.10;1.00;;;;;;5077763;28;20493;-49
2024/02/29 00:39:21;;;;;;;53.50;33.97;;;8.20;1.00;;;;;;5093771;28;20697;-48
2024/02/29 00:41:47;;;;;;;45.40;31.30;;;8.10;1.00;;;;;;5076904;28;20489;-45
2024/02/29 00:44:13;;;;;;;43.20;29.10;;;7.40;1.00;;;;;;5077754;28;20313;-48
2024/02/29 00:46:39;;;;;;;42.57;28.97;;;6.50;99.90;;;;;;5094308;28;20443;-45
2024/02/29 00:49:04;;;;;;;39.00;28.50;;;5.80;99.90;;;;;;5077851;28;20596;-46
2024/02/29 00:51:31;;;;;;;39.10;28.70;;;5.20;99.90;;;;;;5078285;28;20436;-46
2024/02/29 00:53:56;;;;;;;37.07;28.17;;;4.70;99.90;;;;;;5079286;28;20220;-45
2024/02/29 00:56:22;;;;;;;37.23;26.20;;;4.20;99.90;;;;;;5077197;28;20408;-43
2024/02/29 00:58:47;;;;;;;40.13;29.40;;;3.90;99.90;;;;;;5078654;28;20579;-45
2024/02/29 01:01:13;;;;;;;40.57;28.77;;;3.60;99.90;;;;;;5078514;28;20272;-46
2024/02/29 01:03:39;;;;;;;43.47;28.90;;;3.40;99.90;;;;;;5078804;28;20184;-46
2024/02/29 01:06:05;;;;;;;40.83;26.80;;;3.20;99.90;;;;;;5079450;28;20181;-46
2024/02/29 01:08:31;;;;;;;38.63;28.63;;;3.10;99.90;;;;;;5079236;28;20246;-46
2024/02/29 01:10:56;;;;;;;37.10;27.13;;;3.00;99.90;;;;;;5078717;28;20422;-48
2024/02/29 01:13:22;;;;;;;42.10;27.60;;;2.90;99.90;;;;;;5078592;28;20535;-44
2024/02/29 01:15:49;;;;;;;42.93;28.07;;;2.80;99.90;;;;;;5078855;28;20651;-47
2024/02/29 01:18:14;;;;;;;43.27;27.53;;;2.80;99.90;;;;;;5079180;28;20173;-46
2024/02/29 01:20:40;;;;;;;41.30;30.73;;;2.70;99.90;;;;;;5077545;28;20967;-44
2024/02/29 01:23:06;;;;;;;41.17;28.53;;;2.60;99.90;;;;;;5094400;28;20419;-45
2024/02/29 01:25:32;;;;;;;45.00;29.70;;;2.60;99.90;;;;;;5078836;28;20192;-44
2024/02/29 01:27:57;;;;;;;38.77;26.70;;;2.60;99.90;;;;;;5079336;28;20504;-44
2024/02/29 01:30:23;;;;;;;45.60;28.70;;;2.50;99.90;;;;;;5078806;28;20187;-45
2024/02/29 01:32:49;;;;;;;41.53;28.83;;;2.50;99.90;;;;;;5078759;28;20237;-46
2024/02/29 01:35:14;;;;;;;43.30;27.57;;;2.50;99.90;;;;;;5078235;28;20200;-45
2024/02/29 01:37:41;;;;;;;41.93;27.20;;;2.40;99.90;;;;;;5078999;28;20230;-48
2024/02/29 01:40:07;;;;;;;38.20;27.60;;;2.40;99.90;;;;;;5078871;28;20269;-44
2024/02/29 01:42:33;;;;;;;41.20;28.23;;;2.30;99.90;;;;;;5077691;28;20430;-45
2024/02/29 01:44:59;;;;;;;39.80;28.77;;;2.20;99.90;;;;;;5092752;28;20439;-44
2024/02/29 01:47:26;;;;;;;43.53;28.77;;;2.20;99.90;;;;;;5077602;28;20419;-47
2024/02/29 01:49:56;;;;;;;40.10;27.47;;;2.10;99.90;;;;;;5077647;28;20414;-47
2024/02/29 01:52:22;;;;;;;44.97;29.73;;;2.10;99.90;;;;;;5078273;28;20427;-45
2024/02/29 01:54:47;;;;;;;41.77;27.70;;;2.10;99.90;;;;;;5077068;28;20556;-47
2024/02/29 01:57:13;;;;;;;43.50;27.77;;;2.00;99.90;;;;;;5077341;28;20776;-46
2024/02/29 01:59:39;;;;;;;41.23;27.70;;;2.00;99.90;;;;;;5076080;28;20482;-45
2024/02/29 02:02:05;;;;;;;36.87;25.30;;;1.90;99.90;;;;;;5076760;28;20411;-45
2024/02/29 02:04:31;;;;;;;43.03;28.53;;;1.90;99.90;;;;;;5092551;28;20427;-45
2024/02/29 02:06:58;;;;;;;43.37;28.20;;;1.80;99.90;;;;;;5076437;28;20427;-45
2024/02/29 02:09:24;;;;;;;42.93;27.43;;;1.80;99.90;;;;;;5073920;28;20536;-44
2024/02/29 02:11:50;;;;;;;43.97;27.80;;;1.80;99.90;;;;;;5075589;28;20512;-48
2024/02/29 02:14:16;;;;;;;44.67;28.80;;;1.70;99.90;;;;;;5074996;28;20786;-45
2024/02/29 02:16:42;;;;;;;43.13;28.97;;;1.70;99.90;;;;;;5076198;28;20169;-45
2024/02/29 02:19:12;;;;;;;47.10;31.20;;;1.70;99.90;;;;;;5075304;28;20181;-48
2024/02/29 02:21:38;;;;;;;42.77;27.83;;;1.70;99.90;;;;;;5075487;28;20427;-45
2024/02/29 02:24:04;;;;;;;44.47;29.20;;;1.70;99.90;;;;;;5077481;28;20431;-45
2024/02/29 02:26:30;;;;;;;39.90;26.30;;;1.70;99.90;;;;;;5077271;28;20504;-47
2024/02/29 02:28:55;;;;;;;39.57;26.90;;;1.70;99.90;;;;;;5078462;28;20446;-46
2024/02/29 02:31:22;;;;;;;48.50;29.97;;;1.70;99.90;;;;;;5077507;28;20593;-44
2024/02/29 02:33:47;;;;;;;44.23;27.37;;;1.70;1.00;;;;;;5077277;28;20590;-46
2024/02/29 02:36:13;;;;;;;42.60;28.60;;;1.70;1.00;;;;;;5075988;28;20420;-45
2024/02/29 02:38:38;;;;;;;47.60;28.60;;;1.70;1.00;;;;;;5077172;28;20506;-47
2024/02/29 02:41:04;;;;;;;43.30;27.90;;;1.70;99.90;;;;;;5077131;28;20196;-47
2024/02/29 02:43:30;;;;;;;40.00;26.30;;;1.70;99.90;;;;;;5077784;28;20181;-44
2024/02/29 02:45:55;;;;;;;43.93;29.37;;;1.70;99.90;;;;;;5077206;28;20184;-45
2024/02/29 02:48:21;;;;;;;44.33;28.80;;;1.70;99.90;;;;;;5076091;28;20184;-45
2024/02/29 02:50:47;;;;;;;42.53;27.43;;;1.70;99.90;;;;;;5076240;28;20212;-48
2024/02/29 02:53:12;;;;;;;39.97;27.80;;;1.60;99.90;;;;;;5075969;28;20196;-47
2024/02/29 02:55:38;;;;;;;39.40;26.17;;;1.60;99.90;;;;;;5074270;28;20209;-46
2024/02/29 02:58:04;;;;;;;48.77;30.80;;;1.60;99.90;;;;;;5075520;28;20469;-46
2024/02/29 03:00:29;;;;;;;40.20;26.03;;;1.50;99.90;;;;;;5074721;28;20334;-45
2024/02/29 03:02:55;;;;;;;43.90;28.47;;;1.50;99.90;;;;;;5076636;28;20334;-45
2024/02/29 03:05:22;;;;;;;47.03;29.20;;;1.60;99.90;;;;;;5074413;28;20282;-47
2024/02/29 03:11:09;;;;;;;44.50;29.80;;;1.60;1.00;;;;;;5075351;28;20499;-44
2024/02/29 03:13:36;;;;;;;50.10;29.50;;;1.60;1.00;;;;;;5074797;28;20479;-45
2024/02/29 03:16:01;;;;;;;46.83;29.13;;;1.60;1.00;;;;;;5074738;28;20510;-44
2024/02/29 03:18:27;;;;;;;51.57;31.00;;;1.60;1.00;;;;;;5074828;28;20403;-43
2024/02/29 03:20:53;;;;;;;49.13;30.87;;;1.60;1.00;;;;;;5073465;28;20216;-45
2024/02/29 03:23:20;;;;;;;45.30;29.97;;;1.60;1.00;;;;;;5076050;28;20242;-47
2024/02/29 03:25:46;;;;;;;39.03;28.37;;;1.60;1.00;;;;;;5075174;28;20184;-44
2024/02/29 03:28:11;;;;;;;47.90;31.80;;;1.50;1.00;;;;;;5073668;28;20435;-46
2024/02/29 03:30:37;;;;;;;49.60;31.10;;;1.60;1.00;;;;;;5075583;28;20526;-47
2024/02/29 03:33:03;;;;;;;44.40;30.63;;;1.50;1.00;;;;;;5075136;28;20184;-46
2024/02/29 03:35:28;;;;;;;46.50;32.17;;;1.60;1.00;;;;;;5076032;28;20622;-47
2024/02/29 03:37:54;;;;;;;50.73;33.97;;;1.60;1.00;;;;;;5076542;28;20192;-44
2024/02/29 03:40:19;;;;;;;55.27;32.87;;;1.60;1.00;;;;;;5076605;28;20204;-44
2024/02/29 03:42:45;;;;;;;48.53;32.40;;;1.60;1.00;;;;;;5076314;28;20539;-47
2024/02/29 03:45:11;;;;;;;51.43;31.67;;;1.60;1.00;;;;;;5075766;28;20283;-44
2024/02/29 03:47:36;;;;;;;48.80;30.37;;;1.60;1.00;;;;;;5076118;28;20192;-47
2024/02/29 03:50:02;;;;;;;49.43;29.97;;;1.50;1.00;;;;;;5076062;28;20192;-46
2024/02/29 03:52:28;;;;;;;46.50;29.17;;;1.50;1.00;;;;;;5076341;28;20185;-44
2024/02/29 03:54:53;;;;;;;45.10;28.97;;;1.40;1.00;;;;;;5074933;28;20524;-44
2024/02/29 03:57:19;;;;;;;47.17;31.07;;;1.40;1.00;;;;;;5076014;28;20246;-44
2024/02/29 03:59:47;;;;;;;42.90;28.20;;;1.40;1.00;;;;;;5091627;28;20504;-46
2024/02/29 04:02:14;;;;;;;48.80;30.60;;;1.40;1.00;;;;;;5075964;28;20174;-48
2024/02/29 04:04:39;;;;;;;46.20;30.10;;;1.40;1.00;;;;;;5075862;28;20424;-45
2024/02/29 04:07:05;;;;;;;43.83;28.37;;;1.40;1.00;;;;;;5075483;28;20499;-46
2024/02/29 04:09:31;;;;;;;45.03;29.47;;;1.30;1.00;;;;;;5076061;28;20185;-43
2024/02/29 04:11:57;;;;;;;48.33;31.40;;;1.30;99.90;;;;;;5075937;28;20467;-45
2024/02/29 04:14:22;;;;;;;48.10;30.30;;;1.30;99.90;;;;;;5075838;28;20224;-46
2024/02/29 04:16:48;;;;;;;44.17;30.07;;;1.30;99.90;;;;;;5076033;28;20182;-46
2024/02/29 04:19:13;;;;;;;43.50;29.50;;;1.30;99.90;;;;;;5076475;28;20177;-45
2024/02/29 04:21:44;;;;;;;48.17;29.70;;;1.30;99.90;;;;;;5067504;28;20177;-45
2024/02/29 04:24:09;;;;;;;43.70;30.57;;;1.30;99.90;;;;;;5075585;28;20174;-48
2024/02/29 04:26:35;;;;;;;45.73;29.30;;;1.30;99.90;;;;;;5075199;28;20559;-47
2024/02/29 04:29:01;;;;;;;45.00;29.27;;;1.30;99.90;;;;;;5075695;28;20486;-45
2024/02/29 04:31:26;;;;;;;43.10;27.93;;;1.30;99.90;;;;;;5091739;28;20208;-46
2024/02/29 04:33:52;;;;;;;49.60;31.87;;;1.30;99.90;;;;;;5079551;28;20213;-44
2024/02/29 04:36:17;;;;;;;43.63;27.73;;;1.20;99.90;;;;;;5079458;28;20249;-45
2024/02/29 04:38:44;;;;;;;43.40;28.93;;;1.20;99.90;;;;;;5097527;28;20275;-45
2024/02/29 04:41:09;;;;;;;46.43;29.77;;;1.20;99.90;;;;;;5098236;28;20712;-48
2024/02/29 04:43:35;;;;;;;48.43;29.50;;;1.10;99.90;;;;;;5096415;28;20434;-48
2024/02/29 04:46:02;;;;;;;44.10;28.20;;;1.10;99.90;;;;;;5097431;28;20332;-46
2024/02/29 04:48:28;;;;;;;42.93;29.13;;;1.10;99.90;;;;;;5099767;28;20420;-46
2024/02/29 04:50:54;;;;;;;48.67;31.97;;;1.10;99.90;;;;;;5098368;28;20407;-44
2024/02/29 04:53:20;;;;;;;48.20;30.50;;;1.10;99.90;;;;;;5099139;28;20542;-43
2024/02/29 04:55:45;;;;;;;45.90;29.90;;;1.10;99.90;;;;;;5098753;28;20472;-46
2024/02/29 04:58:11;;;;;;;44.50;30.83;;;1.10;99.90;;;;;;5098564;28;20183;-45
2024/02/29 05:00:36;;;;;;;47.30;29.50;;;1.10;99.90;;;;;;5099012;28;20172;-46
2024/02/29 05:03:02;;;;;;;47.57;32.27;;;1.10;99.90;;;;;;5097734;28;20455;-47
2024/02/29 05:05:28;;;;;;;43.90;28.53;;;1.10;99.90;;;;;;5097672;28;20253;-46
2024/02/29 05:07:54;;;;;;;46.53;30.40;;;1.10;99.90;;;;;;5097189;28;20430;-47
2024/02/29 05:10:21;;;;;;;50.23;31.60;;;1.00;99.90;;;;;;5097758;28;20836;-45
2024/02/29 05:12:50;;;;;;;43.97;30.60;;;1.00;99.90;;;;;;5097883;28;20492;-46
2024/02/29 05:15:19;;;;;;;46.70;30.77;;;1.00;99.90;;;;;;5096849;28;20465;-47
2024/02/29 05:17:46;;;;;;;46.23;29.93;;;1.00;99.90;;;;;;5097111;28;20431;-45
2024/02/29 05:20:12;;;;;;;47.00;28.93;;;1.00;99.90;;;;;;5098561;28;20795;-46
2024/02/29 05:22:38;;;;;;;47.57;30.17;;;1.00;99.90;;;;;;5098822;28;20419;-44
2024/02/29 05:25:04;;;;;;;46.40;29.53;;;1.00;99.90;;;;;;5098864;28;20518;-46
2024/02/29 05:27:29;;;;;;;46.63;29.70;;;1.00;99.90;;;;;;5098724;28;20191;-46
2024/02/29 05:29:58;;;;;;;44.57;28.87;;;0.90;99.90;;;;;;5099042;28;20407;-46
2024/02/29 05:32:24;;;;;;;44.17;29.23;;;1.00;99.90;;;;;;5098731;28;20260;-45
2024/02/29 05:34:50;;;;;;;41.07;27.70;;;0.90;99.90;;;;;;5098468;28;20513;-46
2024/02/29 05:37:15;;;;;;;45.20;30.43;;;0.90;99.90;;;;;;5097325;28;20752;-45
2024/02/29 05:39:41;;;;;;;46.27;29.50;;;1.00;99.90;;;;;;5096227;28;20219;-45
2024/02/29 05:42:06;;;;;;;48.00;32.03;;;1.00;1.00;;;;;;5095470;28;20168;-45
2024/02/29 05:44:32;;;;;;;46.03;31.03;;;1.00;1.00;;;;;;5094791;28;20214;-46
2024/02/29 05:46:58;;;;;;;47.10;30.63;;;1.10;1.00;;;;;;5094048;28;20184;-47
2024/02/29 05:49:23;;;;;;;53.97;32.77;;;1.10;1.00;;;;;;5094063;28;20177;-45
2024/02/29 05:51:49;;;;;;;48.97;32.30;;;1.20;1.00;;;;;;5092150;28;20260;-45
2024/02/29 05:54:15;;;;;;;50.23;33.97;;;1.20;1.00;;;;;;5092116;28;20216;-44
2024/02/29 05:56:40;;;;;;;52.63;35.27;;;1.30;1.00;;;;;;5093408;28;20350;-44
2024/02/29 05:59:06;;;;;;;53.60;33.77;;;1.30;1.00;;;;;;5091269;28;20505;-45
2024/02/29 06:01:32;;;;;;;49.27;31.00;;;1.30;1.00;;;;;;5091194;28;20173;-44
2024/02/29 06:03:58;;;;;;;50.63;34.23;;;1.40;1.00;;;;;;5090287;28;20437;-45
2024/02/29 06:06:24;;;;;;;51.50;32.57;;;1.40;1.00;;;;;;5092372;28;20184;-46
2024/02/29 06:08:51;;;;;;;46.80;30.87;;;1.50;1.00;;;;;;5090165;28;20608;-45
2024/02/29 06:11:17;;;;;;;48.93;32.80;;;1.40;1.00;;;;;;5091249;28;20176;-44
2024/02/29 06:13:43;;;;;;;51.30;31.30;;;1.40;1.00;;;;;;5094087;28;20479;-45
2024/02/29 06:16:12;;;;;;;50.43;31.67;;;1.50;1.00;;;;;;5094759;28;20188;-50
2024/02/29 06:18:38;;;;;;;51.60;31.20;;;1.50;1.00;;;;;;5095228;28;20468;-45
2024/02/29 06:21:04;;;;;;;48.27;31.47;;;1.50;1.00;;;;;;5093722;28;20437;-45
2024/02/29 06:23:30;;;;;;;50.60;31.40;;;1.50;1.00;;;;;;5094876;28;20172;-47
2024/02/29 06:25:56;;;;;;;53.40;33.00;;;1.50;1.00;;;;;;5095010;28;20441;-47
2024/02/29 06:28:21;;;;;;;52.27;32.20;;;1.60;1.00;;;;;;5093873;28;20703;-44
2024/02/29 06:30:47;;;;;;;50.90;32.53;;;1.60;1.00;;;;;;5094670;28;20188;-46
2024/02/29 06:33:13;;;;;;;48.83;30.17;;;1.70;1.00;;;;;;5094335;28;20180;-45
2024/02/29 06:35:38;;;;;;;48.33;30.80;;;1.70;1.00;;;;;;5092832;28;20200;-46
2024/02/29 06:38:04;;;;;;;49.30;31.43;;;1.80;1.00;;;;;;5075091;28;20191;-45
2024/02/29 06:40:30;;;;;;;50.63;31.80;;;1.80;1.00;;;;;;5075872;28;20182;-48
2024/02/29 06:42:56;;;;;;;50.03;33.60;;;2.00;1.00;;;;;;5076831;28;20508;-45
2024/02/29 06:45:21;;;;;;;53.73;34.00;;;2.10;1.00;;;;;;5073791;28;20169;-43
2024/02/29 06:47:47;;;;;;;52.03;34.40;;;2.30;1.00;;;;;;5073385;28;20161;-44
2024/02/29 06:50:13;;;;;;;50.90;32.50;;;2.40;1.00;;;;;;5075117;28;20205;-45
2024/02/29 06:52:39;;;;;;;57.10;34.60;;;2.50;1.00;;;;;;5073998;28;20205;-46
2024/02/29 06:55:08;;;;;;;48.37;32.67;;;2.70;1.00;;;;;;5071668;28;20587;-45
2024/02/29 06:57:35;;;;;;;52.53;34.23;;;2.90;1.00;;;;;;5075170;28;20427;-45
2024/02/29 07:00:01;;;;;;;53.40;34.83;;;3.00;1.00;;;;;;5074425;28;20510;-44
2024/02/29 07:02:26;;;;;;;51.10;33.80;;;3.20;1.00;;;;;;5073855;28;20518;-46
2024/02/29 07:04:52;;;;;;;43.90;30.97;;;3.40;1.00;;;;;;5074912;28;20501;-45
2024/02/29 07:07:18;;;;;;;47.50;31.30;;;3.50;1.00;;;;;;5070216;28;20648;-47
2024/02/29 07:09:44;;;;;;;50.40;33.07;;;3.60;1.00;;;;;;5074238;28;20216;-44
2024/02/29 07:12:10;;;;;;;46.87;32.40;;;3.80;99.90;;;;;;5073040;28;20574;-47
2024/02/29 07:14:35;;;;;;;43.83;29.53;;;3.90;99.90;;;;;;5073671;28;20494;-46
2024/02/29 07:17:01;;;;;;;45.63;30.50;;;4.00;99.90;;;;;;5074265;28;20269;-49
2024/02/29 07:19:26;;;;;;;42.53;31.07;;;4.10;99.90;;;;;;5071707;28;20216;-46
2024/02/29 07:21:53;;;;;;;49.70;34.63;;;4.30;99.90;;;;;;5074043;28;20463;-45
2024/02/29 07:24:18;;;;;;;46.70;31.20;;;4.40;99.90;;;;;;5072711;28;20570;-51
2024/02/29 07:26:45;;;;;;;42.73;32.00;;;4.50;99.90;;;;;;5073790;28;20503;-48
2024/02/29 07:29:11;;;;;;;41.20;29.60;;;4.70;99.90;;;;;;5074790;28;20192;-44
2024/02/29 07:31:40;;;;;;;42.57;31.37;;;4.90;99.90;;;;;;5075093;28;20453;-44
2024/02/29 07:34:06;;;;;;;48.17;31.03;;;5.10;1.00;;;;;;5071703;28;20749;-43
2024/02/29 07:36:31;;;;;;;42.20;30.90;;;5.30;1.00;;;;;;5071432;28;20407;-46
2024/02/29 07:38:57;;;;;;;46.97;33.03;;;5.60;1.00;;;;;;5073349;28;20672;-44
2024/02/29 07:41:23;;;;;;;42.90;31.37;;;5.80;1.00;;;;;;5071307;28;20181;-45
2024/02/29 07:43:48;;;;;;;45.67;32.63;;;6.10;99.90;;;;;;5073402;28;20254;-45
2024/02/29 07:46:16;;;;;;;43.60;32.17;;;6.40;99.90;;;;;;5073233;28;20181;-45
2024/02/29 07:48:43;;;;;;;42.80;30.77;;;6.60;1.00;;;;;;5074151;28;20188;-45
2024/02/29 07:51:09;;;;;;;42.43;30.70;;;7.00;99.90;;;;;;5075757;28;20422;-48
2024/02/29 07:53:34;;;;;;;39.60;30.60;;;7.30;1.00;;;;;;5074262;28;20427;-45
2024/02/29 07:56:04;;;;;;;41.43;29.77;;;7.60;1.00;;;;;;5071712;28;20450;-48
2024/02/29 07:58:30;;;;;;;43.97;31.20;;;7.90;99.90;;;;;;5073424;28;20177;-45
2024/02/29 08:00:56;;;;;;;39.20;29.50;;;8.20;1.00;;;;;;5072043;28;20458;-46
2024/02/29 08:03:22;;;;;;;38.87;27.83;;;8.60;47.50;;;;;;5074019;28;20180;-49
2024/02/29 08:05:47;;;;;;;37.30;29.97;;;9.10;1.00;;;;;;5073864;28;20458;-45
2024/02/29 08:08:13;;;;;;;35.80;28.23;;;9.20;87.00;;;;;;5077990;28;20173;-44
2024/02/29 08:10:39;;;;;;;35.50;28.20;;;9.40;93.20;;;;;;5078562;28;20177;-46
2024/02/29 08:13:04;;;;;;;39.13;29.57;;;9.70;47.50;;;;;;5077059;28;20243;-46
2024/02/29 08:15:30;;;;;;;36.47;28.20;;;10.10;1.00;;;;;;5076836;28;20454;-45
2024/02/29 08:17:57;;;;;;;32.03;26.40;;;10.70;99.90;;;;;;5077407;28;20173;-46
2024/02/29 08:20:25;;;;;;;37.07;28.23;;;10.70;99.90;;;;;;5077368;28;20250;-47
2024/02/29 08:22:53;;;;;;;30.77;26.60;;;10.80;99.90;;;;;;5076803;28;20419;-45
2024/02/29 08:25:21;;;;;;;37.70;28.60;;;10.70;99.90;;;;;;5077844;28;20450;-46
2024/02/29 08:27:47;;;;;;;33.60;27.00;;;11.10;99.90;;;;;;5076962;28;20568;-45
2024/02/29 08:30:13;;;;;;;23.30;18.03;;;11.70;99.90;;;;;;5076415;28;20450;-45
2024/02/29 08:32:39;;;;;;;38.47;29.17;;;12.10;54.80;;;;;;5075560;28;20434;-48
2024/02/29 08:35:07;;;;;;;24.03;16.90;;;13.10;1.00;;;;;;5076373;28;20219;-45
2024/02/29 08:37:33;;;;;;;22.63;19.07;;;14.20;1.00;;;;;;5077683;28;20427;-48
2024/02/29 08:39:59;;;;;;;31.43;26.13;;;14.90;1.00;;;;;;5078484;28;20813;-47
2024/02/29 08:42:24;;;;;;;31.27;26.40;;;15.60;53.10;;;;;;5077676;28;20242;-45
2024/02/29 08:44:51;;;;;;;27.57;24.57;;;15.70;1.00;;;;;;5077498;28;20431;-46
2024/02/29 08:47:17;;;;;;;27.23;24.17;;;16.20;1.00;;;;;;5077659;28;20215;-47
2024/02/29 08:49:43;;;;;;;29.83;26.30;;;16.60;1.00;;;;;;5077344;28;20464;-45
2024/02/29 08:52:08;;;;;;;30.37;27.17;;;17.10;1.00;;;;;;5076074;28;20275;-46
2024/02/29 08:54:34;;;;;;;31.67;26.70;;;16.50;1.00;;;;;;5078022;28;20424;-49
2024/02/29 08:57:03;;;;;;;28.57;24.97;;;16.40;1.00;;;;;;5075922;28;20458;-46
2024/02/29 08:59:29;;;;;;;27.67;24.77;;;16.60;1.00;;;;;;5073989;28;20431;-45
2024/02/29 09:01:56;;;;;;;29.90;26.70;;;16.50;1.00;;;;;;5076331;28;20433;-44
2024/02/29 09:04:22;;;;;;;28.37;25.27;;;16.60;1.00;;;;;;5058885;28;20439;-45
2024/02/29 09:06:48;;;;;;;26.13;23.37;;;17.10;1.00;;;;;;5075974;28;20431;-46
2024/02/29 09:09:13;;;;;;;28.93;25.83;;;17.80;1.00;;;;;;5073565;28;20427;-46
2024/02/29 09:11:39;;;;;;;29.97;25.57;;;18.30;1.00;;;;;;5074740;28;20212;-45
2024/02/29 09:14:05;;;;;;;27.93;23.60;;;18.80;1.00;;;;;;5076566;28;20202;-47
2024/02/29 09:16:30;;;;;;;28.33;25.33;;;19.00;1.00;;;;;;5074296;28;20173;-45
2024/02/29 09:18:56;;;;;;;29.50;26.40;;;19.50;1.00;;;;;;5073473;28;20174;-47
2024/02/29 09:21:22;;;;;;;28.03;25.03;;;19.80;1.00;;;;;;5073808;28;20193;-44
2024/02/29 09:23:51;;;;;;;26.30;23.60;;;19.80;1.00;;;;;;5076448;28;20465;-45
2024/02/29 09:26:18;;;;;;;27.43;24.63;;;20.40;1.00;;;;;;5076854;28;20177;-49
2024/02/29 09:28:44;;;;;;;28.23;25.13;;;20.60;1.00;;;;;;5073167;28;20545;-45
2024/02/29 09:31:11;;;;;;;28.87;25.90;;;20.20;1.00;;;;;;5074857;28;20864;-45
2024/02/29 09:33:38;;;;;;;27.67;24.70;;;20.30;1.00;;;;;;5073598;28;20779;-44
2024/02/29 09:36:11;;;;;;;27.60;24.83;;;20.50;1.00;;;;;;5074958;28;20745;-44
2024/02/29 09:38:40;;;;;;;27.43;24.67;;;20.90;1.00;;;;;;5075248;28;20496;-45
2024/02/29 09:41:07;;;;;;;27.30;24.37;;;21.10;1.00;;;;;;5074352;28;20729;-47
2024/02/29 09:43:34;;;;;;;26.00;23.40;;;21.10;1.00;;;;;;5076160;28;20760;-44
2024/02/29 09:45:59;;;;;;;24.50;22.00;;;21.40;1.00;;;;;;5076450;28;20852;-45
2024/02/29 09:48:25;;;;;;;25.53;23.00;;;21.90;1.00;;;;;;5074711;28;20418;-45
2024/02/29 09:51:00;;;;;;;26.47;23.67;;;22.20;1.00;;;;;;5075616;28;20531;-43
2024/02/29 09:53:27;;;;;;;26.63;24.03;;;22.50;1.00;;;;;;5075930;28;20522;-46
2024/02/29 09:55:56;;;;;;;24.07;21.60;;;22.90;1.00;;;;;;5077339;28;20501;-46
2024/02/29 09:58:22;;;;;;;26.53;23.73;;;23.40;1.00;;;;;;5074836;28;20434;-43
2024/02/29 10:00:48;;;;;;;27.23;24.33;;;23.30;1.00;;;;;;5075978;28;20497;-42
2024/02/29 10:03:16;;;;;;;26.40;23.70;;;22.90;1.00;;;;;;5076070;28;20256;-44
2024/02/29 10:05:46;;;;;;;25.73;23.17;;;22.50;1.00;;;;;;5075377;28;20453;-43
2024/02/29 10:08:12;;;;;;;27.33;24.53;;;22.50;1.00;;;;;;5075038;28;20453;-43
2024/02/29 10:10:38;;;;;;;25.70;23.00;;;22.40;1.00;;;;;;5073931;28;20424;-44
2024/02/29 10:13:06;;;;;;;26.17;22.97;;;21.90;1.00;;;;;;5073401;28;20478;-46
2024/02/29 10:15:32;;;;;;;27.40;24.00;;;21.50;1.00;;;;;;5072874;28;20250;-44
2024/02/29 10:17:58;;;;;;;24.30;21.80;;;21.20;1.00;;;;;;5090670;28;20743;-43
2024/02/29 10:20:25;;;;;;;27.13;24.00;;;21.60;1.00;;;;;;5095313;28;20510;-46
2024/02/29 10:22:52;;;;;;;26.10;23.53;;;22.10;1.00;;;;;;5095260;28;20451;-43
2024/02/29 10:25:19;;;;;;;27.00;24.20;;;21.50;1.00;;;;;;5094972;28;20429;-44
2024/02/29 10:27:44;;;;;;;24.23;20.60;;;21.30;1.00;;;;;;5094892;28;20250;-46
2024/02/29 10:30:15;;;;;;;20.80;18.70;;;21.40;1.00;;;;;;5094637;28;20410;-43
2024/02/29 10:32:43;;;;;;;26.30;23.50;;;22.00;1.00;;;;;;5093877;28;20280;-45
2024/02/29 10:35:22;;;;;;;23.90;21.67;;;22.70;1.00;;;;;;5094076;28;20509;-48
2024/02/29 10:37:49;;;;;;;24.53;22.03;;;22.90;1.00;;;;;;5095053;28;20545;-43
2024/02/29 10:40:16;;;;;;;21.00;18.90;;;23.80;1.00;;;;;;5097029;28;20525;-46
2024/02/29 10:42:41;;;;;;;24.10;21.90;;;24.50;1.00;;;;;;5095258;28;20543;-43
2024/02/29 10:45:13;;;;;;;23.57;21.27;;;25.30;1.00;;;;;;5093535;28;20441;-45
2024/02/29 10:47:44;;;;;;;23.30;21.20;;;25.50;1.00;;;;;;5094329;28;20434;-47
2024/02/29 10:50:13;;;;;;;25.70;23.23;;;25.70;1.00;;;;;;5095472;28;20666;-45
2024/02/29 10:52:45;;;;;;;26.33;23.90;;;26.60;1.00;;;;;;5094912;28;20453;-47
2024/02/29 10:55:12;;;;;;;24.57;22.33;;;27.00;1.00;;;;;;5089167;28;20474;-45
2024/02/29 10:57:48;;;;;;;23.53;21.33;;;27.30;1.00;;;;;;5092685;28;20729;-45
2024/02/29 11:00:14;;;;;;;25.27;22.97;;;28.20;1.00;;;;;;5094030;28;20848;-45
2024/02/29 11:02:40;;;;;;;29.20;26.60;;;28.80;1.00;;;;;;5093549;28;20399;-46
2024/02/29 11:05:07;;;;;;;25.57;23.37;;;29.00;1.00;;;;;;5091977;28;20409;-45
2024/02/29 11:07:34;;;;;;;25.03;22.83;;;28.50;1.00;;;;;;5092619;28;20699;-45
2024/02/29 11:10:04;;;;;;;24.60;22.50;;;28.40;1.00;;;;;;5093546;28;20972;-45
2024/02/29 11:12:29;;;;;;;26.30;24.00;;;29.20;1.00;;;;;;5093873;28;20776;-44
2024/02/29 11:14:58;;;;;;;23.23;21.03;;;29.10;1.00;;;;;;5096281;28;20557;-45
2024/02/29 11:17:28;;;;;;;27.43;24.73;;;28.20;1.00;;;;;;5095244;28;20886;-47
2024/02/29 11:20:07;;;;;;;22.90;20.70;;;28.00;1.00;;;;;;5094526;28;20837;-46
2024/02/29 11:22:36;;;;;;;21.53;19.73;;;28.00;1.00;;;;;;5092397;28;20483;-46
2024/02/29 11:25:09;;;;;;;25.30;23.03;;;28.60;1.00;;;;;;5094774;28;20396;-45
2024/02/29 11:27:35;;;;;;;25.33;23.07;;;28.80;1.00;;;;;;5094975;28;20392;-45
2024/02/29 11:30:02;;;;;;;21.87;19.87;;;27.10;1.00;;;;;;5094677;28;20472;-45
2024/02/29 11:32:34;;;;;;;20.80;18.80;;;26.60;1.00;;;;;;5092126;28;20528;-46
2024/02/29 11:35:00;;;;;;;19.63;17.83;;;27.50;1.00;;;;;;5092331;28;20449;-46
2024/02/29 11:37:28;;;;;;;19.40;17.70;;;28.50;1.00;;;;;;5092059;28;20437;-44
2024/02/29 11:40:07;;;;;;;22.17;20.27;;;29.10;1.00;;;;;;5091555;28;20286;-44
2024/02/29 11:42:35;;;;;;;21.37;19.47;;;28.20;1.00;;;;;;5091891;28;20426;-48
2024/02/29 11:45:01;;;;;;;20.60;18.70;;;28.40;1.00;;;;;;5092849;28;20404;-46
2024/02/29 11:47:27;;;;;;;17.80;16.10;;;29.50;1.00;;;;;;5089609;28;20401;-45
2024/02/29 11:49:53;;;;;;;23.83;18.47;;;31.30;1.00;;;;;;5091693;28;20169;-45
2024/02/29 11:52:19;;;;;;;19.33;17.03;;;32.70;1.00;;;;;;5091343;28;20686;-44
2024/02/29 11:54:45;;;;;;;26.53;14.20;;;34.00;17.50;;;;;;5088563;28;20470;-44
2024/02/29 11:57:11;;;;;;;12.43;11.23;;;35.40;1.00;;;;;;5090066;28;20176;-45
2024/02/29 11:59:38;;;;;;;12.37;11.27;;;35.60;1.00;;;;;;5092768;28;20422;-43
2024/02/29 12:02:07;;;;;;;12.93;11.63;;;35.90;1.00;;;;;;5093255;28;20434;-43
2024/02/29 12:04:33;;;;;;;13.63;12.53;;;35.80;1.00;;;;;;5091510;28;20542;-46
2024/02/29 12:06:59;;;;;;;12.67;11.57;;;36.10;1.00;;;;;;5093137;28;20491;-43
2024/02/29 12:09:25;;;;;;;11.67;10.77;;;35.90;1.00;;;;;;5093106;28;20221;-44
2024/02/29 12:11:51;;;;;;;11.67;10.77;;;35.90;1.00;;;;;;5090342;28;20224;-47
2024/02/29 12:14:16;;;;;;;10.00;9.20;;;35.80;1.00;;;;;;5093380;28;20442;-45
2024/02/29 12:16:43;;;;;;;10.50;9.70;;;35.60;1.00;;;;;;5089995;28;20180;-43
2024/02/29 12:19:09;;;;;;;11.17;10.33;;;35.50;1.00;;;;;;5092378;28;20267;-43
2024/02/29 12:21:37;;;;;;;12.47;11.57;;;35.20;99.90;;;;;;5090839;28;20762;-43
2024/02/29 12:24:07;;;;;;;14.20;13.10;;;34.90;99.90;;;;;;5091599;28;20410;-42
2024/02/29 12:26:32;;;;;;;11.67;10.87;;;34.40;99.90;;;;;;5089126;28;20677;-45
2024/02/29 12:28:59;;;;;;;11.13;10.23;;;34.60;99.90;;;;;;5086922;28;21028;-44
2024/02/29 12:31:25;;;;;;;13.10;12.00;;;35.00;99.90;;;;;;5087138;28;20457;-43
2024/02/29 12:33:52;;;;;;;11.70;10.80;;;35.50;99.90;;;;;;5088832;28;20734;-47
2024/02/29 12:36:21;;;;;;;11.50;10.60;;;36.30;99.90;;;;;;5088382;28;20475;-43